Record high temperature 42.2°C Record low temperature -14.6°C Record high gust 76.2 km/h Record high average 96.8 km/h Record daily rain 63.7 mm Record low windchill -17.5°C Record high barometer 1046.0 hPa Record low barometer 960.0 hPa
Daily high pressure 995.0 hPa Daily low pressure 983.0 hPa Daily low windchill 4.4°C Daily high heat index 9.1°C Daily high gust speed 42.7 kmh SSE Daily high average speed 24.4 kmh S

This page is updated from recent data collected by a WMR200 weather station Use the Reload or Refresh facility on your browser to retrieve the latest data.

Status report of weather station: Bienvenue sur la Station Météo de Godarville



Weather report/warning/Metars

Alexandroupoli Airport , Greece (LGAL) 40-51N 025-55E 3M
Dec 01, 2021 - 12:20 AM EST / 2021.12.01 0520 UTC
Wind: Calm:0
Visibility: greater than 7 mile(s):0
Sky conditions: mostly clear
Temperature: 33 F (1 C)
Dew Point: 28 F (-2 C)
Relative Humidity: 80%
Pressure (altimeter): 29.94 in. Hg (1014 hPa)
ob: LGAL 010520Z 00000KT 9999 FEW020 01/M02 Q1014
cycle: 5

Charleroi / Gosselies, Belgium (EBCI) 50-28N 004-27E 192M
Dec 01, 2021 - 12:20 AM EST / 2021.12.01 0520 UTC
Wind: from the SSW (210 degrees) at 21 MPH (18 KT):0
Visibility: 1 mile(s):0
Sky conditions: mostly cloudy
Weather: light rain
Temperature: 44 F (7 C)
Dew Point: 42 F (6 C)
Relative Humidity: 93%
Pressure (altimeter): 29.47 in. Hg (0998 hPa)
ob: EBCI 010520Z 21018KT 3000 -RA BKN006 07/06 Q0998 NOSIG
cycle: 5

Bruxelles National, Belgium (EBBR) 50-54N 004-32E 58M
Dec 01, 2021 - 12:20 AM EST / 2021.12.01 0520 UTC
Wind: from the SSW (210 degrees) at 22 MPH (19 KT):0
Visibility: 2 mile(s):0
Sky conditions: mostly cloudy
Weather: light rain, drizzle
Temperature: 46 F (8 C)
Dew Point: 44 F (7 C)
Relative Humidity: 93%
Pressure (altimeter): 29.41 in. Hg (0996 hPa)
ob: EBBR 010520Z 21019KT 3500 -RADZ SCT006 BKN015 08/07 Q0996 NOSIG
cycle: 5

Koksijde, Belgium (EBFN) 51-05N 002-39E 9M
Dec 01, 2021 - 12:25 AM EST / 2021.12.01 0525 UTC
Wind: from the SW (230 degrees) at 13 MPH (11 KT):0
Visibility: greater than 7 mile(s):0
Sky conditions: overcast
Temperature: 50 F (10 C)
Dew Point: 48 F (9 C)
Relative Humidity: 93%
Pressure (altimeter): 29.35 in. Hg (0994 hPa)
ob: EBFN 010525Z AUTO 23011KT 9999 OVC009/// 10/09 Q0994 GRN
cycle: 5

Poznan, Poland (EPPO) 52-25N 016-50E 92M
Dec 01, 2021 - 12:30 AM EST / 2021.12.01 0530 UTC
Wind: from the SSW (210 degrees) at 6 MPH (5 KT):0
Visibility: greater than 7 mile(s):0
Sky conditions: mostly cloudy
Temperature: 32 F (0 C)
Windchill: 26 F (-3 C):1
Dew Point: 32 F (0 C)
Relative Humidity: 100%
Pressure (altimeter): 29.56 in. Hg (1001 hPa)
ob: EPPO 010530Z 21005KT 9999 BKN011 BKN029 00/M00 Q1001 
cycle: 5



Coucher du Soleil:
16:42:19

Lever de Lune:
02:55:14 30/11/21

Coucher de Lune:
14:54:21 30/11/21

Premier Quartier 11 novembre 2021
Pleine Lune 19 novembre 2021
Dernier Quartier 27 novembre 2021
Nouvelle Lune 4 décembre 2021
Âge de lune : 25 jours,16 heures,50 minutes,16%
Les heures du jour possible étaient aujourd’hui 08:22